Bushville, New York
Current Conditions -  °F | °C
As of 6:54 PM on Friday 31 Oct 2014 (Local Time) from KBUF Reporting Station
Light Rain Light Rain  
Wind Chill:   Ceiling: 3000
Heat Index:   Visibility: 8mi
Dew Point:   Wind: 6mph
Humidity: 86%   Direction: 90°E
Pressure: 29.92"   Gusts: NA
Location:  42.9969°N, 78.2158°W
Report Text: KBUF 312254Z 09005KT 8SM -RA FEW020 BKN030 OVC045 07/05 A2992 RMK AO2 SLP138 PCPN VRY LGT P0000 T00720050
Loading
Personal Weather Stations






























Interactive Weather Map
Tropical Storm Tracking
New forecast layout! Learn more

10-Day Weather Forecast

Advertisements
Track Severe Weather on mobile